createdAt,value
2023-03-31T00:00:58.329Z,66.52
2023-03-31T00:03:25.618Z,66.26
2023-03-31T00:06:00.856Z,66.95
2023-03-31T00:08:35.848Z,66.98
2023-03-31T00:11:07.476Z,67.42
2023-03-31T00:13:36.271Z,67.59
2023-03-31T00:16:09.569Z,66.62
2023-03-31T00:18:37.219Z,66.40
2023-03-31T00:21:09.005Z,66.95
2023-03-31T00:23:36.470Z,66.16
2023-03-31T00:26:03.922Z,66.53
2023-03-31T00:28:31.354Z,67.36
2023-03-31T00:31:03.322Z,66.64
2023-03-31T00:33:30.509Z,67.42
2023-03-31T00:36:02.556Z,66.85
2023-03-31T00:38:33.038Z,66.78
2023-03-31T00:41:01.479Z,66.07
2023-03-31T00:43:37.097Z,66.47
2023-03-31T00:46:15.755Z,66.29
2023-03-31T00:48:58.339Z,65.79
2023-03-31T00:51:32.322Z,65.69
2023-03-31T00:54:06.518Z,65.07
2023-03-31T00:56:37.972Z,65.76
2023-03-31T00:59:09.141Z,65.74
2023-03-31T01:01:39.751Z,65.87
2023-03-31T01:04:10.180Z,65.69
2023-03-31T01:06:50.457Z,66.42
2023-03-31T01:09:17.668Z,65.62
2023-03-31T01:11:46.980Z,65.87
2023-03-31T01:14:14.851Z,65.56
2023-03-31T01:16:44.664Z,66.05
2023-03-31T01:19:24.010Z,66.00
2023-03-31T01:22:03.068Z,65.42
2023-03-31T01:24:52.181Z,66.10
2023-03-31T01:27:42.704Z,65.22
2023-03-31T01:30:34.610Z,65.84
2023-03-31T01:33:47.150Z,65.58
2023-03-31T01:36:51.849Z,64.82
2023-03-31T01:39:44.190Z,65.13
2023-03-31T01:42:23.661Z,64.95
2023-03-31T01:45:18.586Z,64.96
2023-03-31T01:47:59.233Z,65.03
2023-03-31T01:50:53.981Z,64.81
2023-03-31T01:53:23.874Z,64.32
2023-03-31T01:56:02.867Z,64.54
2023-03-31T01:58:39.914Z,64.67
2023-03-31T02:01:21.518Z,64.35
2023-03-31T02:04:15.031Z,64.03
2023-03-31T02:06:50.237Z,64.01
2023-03-31T02:09:22.259Z,64.03
2023-03-31T02:11:52.213Z,63.92
2023-03-31T02:14:24.283Z,63.18
2023-03-31T02:16:58.721Z,62.89
2023-03-31T02:19:31.916Z,62.70
2023-03-31T02:22:00.027Z,62.92
2023-03-31T02:24:29.630Z,62.23
2023-03-31T02:27:28.659Z,61.98
2023-03-31T02:29:56.523Z,62.27
2023-03-31T02:32:36.362Z,61.44
2023-03-31T02:35:04.988Z,61.65
2023-03-31T02:37:33.588Z,62.16
2023-03-31T02:40:06.634Z,61.75
2023-03-31T02:42:34.081Z,61.93
2023-03-31T02:45:03.962Z,62.65
2023-03-31T02:47:31.751Z,62.73
2023-03-31T02:50:02.057Z,63.68
2023-03-31T02:52:41.100Z,63.66
2023-03-31T02:55:18.276Z,64.65
2023-03-31T02:57:57.489Z,63.85
2023-03-31T03:01:03.643Z,63.89
2023-03-31T03:04:00.993Z,63.39
2023-03-31T03:06:37.908Z,63.25
2023-03-31T03:09:45.000Z,63.13
2023-03-31T03:12:24.124Z,64.15
2023-03-31T03:15:13.175Z,63.62
2023-03-31T03:17:47.781Z,63.74
2023-03-31T03:20:16.554Z,63.95
2023-03-31T03:22:43.769Z,64.46
2023-03-31T03:25:13.744Z,64.27
2023-03-31T03:27:41.496Z,64.48
2023-03-31T03:30:11.526Z,64.24
2023-03-31T03:32:39.003Z,64.83
2023-03-31T03:35:07.260Z,64.34
2023-03-31T03:37:34.869Z,64.78
2023-03-31T03:40:02.237Z,64.87
2023-03-31T03:42:29.726Z,64.88
2023-03-31T03:44:57.208Z,65.17
2023-03-31T03:47:25.091Z,65.32
2023-03-31T03:49:52.624Z,65.05
2023-03-31T03:52:20.852Z,64.79
2023-03-31T03:54:48.093Z,64.90
2023-03-31T03:57:16.067Z,64.54
2023-03-31T03:59:43.323Z,64.02
2023-03-31T04:02:11.073Z,63.67
2023-03-31T04:04:38.351Z,64.00
2023-03-31T04:07:06.554Z,63.22
2023-03-31T04:09:33.919Z,63.40
2023-03-31T04:12:02.346Z,63.64
2023-03-31T04:14:29.932Z,63.98
2023-03-31T04:16:59.158Z,63.92
2023-03-31T04:19:27.709Z,64.03
2023-03-31T04:22:03.772Z,63.89
2023-03-31T04:24:33.531Z,63.75
2023-03-31T04:27:03.546Z,63.86
2023-03-31T04:29:34.151Z,63.55
2023-03-31T04:32:02.102Z,63.91
2023-03-31T04:34:38.931Z,62.97
2023-03-31T04:37:06.606Z,63.42
2023-03-31T04:39:33.872Z,62.79
2023-03-31T04:42:01.785Z,62.73
2023-03-31T04:44:30.058Z,62.66
2023-03-31T04:46:59.071Z,62.51
2023-03-31T04:49:26.645Z,62.61
2023-03-31T04:51:53.853Z,61.65
2023-03-31T04:54:21.482Z,60.82
2023-03-31T04:56:49.631Z,61.08
2023-03-31T04:59:16.948Z,60.75
2023-03-31T05:01:45.834Z,60.85
2023-03-31T05:04:13.551Z,60.50
2023-03-31T05:06:41.406Z,59.49
2023-03-31T05:09:10.110Z,60.09
2023-03-31T05:11:38.597Z,59.41
2023-03-31T05:14:06.446Z,58.43
2023-03-31T05:16:35.038Z,58.09
2023-03-31T05:19:02.350Z,57.87
2023-03-31T05:21:31.229Z,57.22
2023-03-31T05:23:58.851Z,56.31
2023-03-31T05:26:26.626Z,55.36
2023-03-31T05:28:55.020Z,55.43
2023-03-31T05:31:23.312Z,53.89
2023-03-31T05:33:51.023Z,54.09
2023-03-31T05:36:18.341Z,54.99
2023-03-31T05:38:46.377Z,54.92
2023-03-31T05:41:13.993Z,55.48
2023-03-31T05:43:41.393Z,55.23
2023-03-31T05:46:08.932Z,54.92
2023-03-31T05:48:37.693Z,55.15
2023-03-31T05:51:05.461Z,52.29
2023-03-31T05:53:34.203Z,53.37
2023-03-31T05:56:03.964Z,51.71
2023-03-31T05:58:34.011Z,50.58
2023-03-31T06:01:10.729Z,49.83
2023-03-31T06:03:44.615Z,49.75
2023-03-31T06:06:16.972Z,48.94
2023-03-31T06:08:45.984Z,46.30
2023-03-31T06:11:19.799Z,45.09
2023-03-31T06:13:47.795Z,42.48
2023-03-31T06:16:17.274Z,39.64
2023-03-31T06:18:46.692Z,38.00
2023-03-31T06:21:17.904Z,36.74
2023-03-31T06:23:46.416Z,36.29
2023-03-31T06:26:16.772Z,36.29
2023-03-31T06:28:45.962Z,35.89
2023-03-31T06:31:15.834Z,36.73
2023-03-31T06:33:45.042Z,33.65
2023-03-31T06:36:15.455Z,34.62
2023-03-31T06:38:43.906Z,35.45
2023-03-31T06:41:14.867Z,37.15
2023-03-31T06:43:43.299Z,37.47
2023-03-31T06:46:12.050Z,38.70
2023-03-31T06:48:40.590Z,39.02
2023-03-31T06:51:09.199Z,38.85
2023-03-31T06:53:37.726Z,39.27
2023-03-31T06:56:07.266Z,40.55
2023-03-31T06:58:35.734Z,41.48
2023-03-31T07:01:05.785Z,42.82
2023-03-31T07:03:34.874Z,43.60
2023-03-31T07:06:06.148Z,42.14
2023-03-31T07:08:34.466Z,42.41
2023-03-31T07:11:02.664Z,42.94
2023-03-31T07:13:31.449Z,44.35
2023-03-31T07:15:59.585Z,44.88
2023-03-31T07:18:34.786Z,45.36
2023-03-31T07:21:10.078Z,45.26
2023-03-31T07:23:38.705Z,45.61
2023-03-31T07:26:07.296Z,45.25
2023-03-31T07:28:35.937Z,45.52
2023-03-31T07:31:04.185Z,44.93
2023-03-31T07:33:33.783Z,45.33
2023-03-31T07:36:12.756Z,46.06
2023-03-31T07:38:47.126Z,47.11
2023-03-31T07:41:18.530Z,46.72
2023-03-31T07:43:50.223Z,46.82
2023-03-31T07:46:27.146Z,47.60
2023-03-31T07:48:58.097Z,46.81
2023-03-31T07:51:29.938Z,47.08
2023-03-31T07:53:58.313Z,47.84
2023-03-31T07:56:26.534Z,47.49
2023-03-31T07:58:57.732Z,48.41
2023-03-31T08:01:27.058Z,49.35
2023-03-31T08:03:56.305Z,49.46
2023-03-31T08:06:26.558Z,49.89
2023-03-31T08:08:54.832Z,49.08
2023-03-31T08:11:22.858Z,49.40
2023-03-31T08:13:52.110Z,49.50
2023-03-31T08:16:20.650Z,48.22
2023-03-31T08:18:49.436Z,47.48
2023-03-31T08:21:17.537Z,46.57
2023-03-31T08:23:45.972Z,46.61
2023-03-31T08:26:20.613Z,47.18
2023-03-31T08:28:49.718Z,47.53
2023-03-31T08:31:23.247Z,47.17
2023-03-31T08:33:52.947Z,48.06
2023-03-31T08:36:20.720Z,47.85
2023-03-31T08:38:50.114Z,48.52
2023-03-31T08:41:38.429Z,47.17
2023-03-31T08:44:31.783Z,44.76
2023-03-31T08:47:03.077Z,45.47
2023-03-31T08:49:42.377Z,45.15
2023-03-31T08:52:17.176Z,45.88
2023-03-31T08:54:52.150Z,46.19
2023-03-31T08:57:26.997Z,47.20
2023-03-31T08:59:58.576Z,47.50
2023-03-31T09:02:34.059Z,47.75
2023-03-31T09:05:43.212Z,48.13
2023-03-31T09:08:36.026Z,48.97
2023-03-31T09:11:14.632Z,48.20
2023-03-31T09:13:45.476Z,47.23
2023-03-31T09:16:20.714Z,48.47
2023-03-31T09:18:48.371Z,48.87
2023-03-31T09:21:49.668Z,49.39
2023-03-31T09:24:23.889Z,49.35
2023-03-31T09:27:00.218Z,49.02
2023-03-31T09:29:51.776Z,48.80
2023-03-31T09:32:24.338Z,49.04
2023-03-31T09:35:02.143Z,49.63
2023-03-31T09:37:33.850Z,49.22
2023-03-31T09:40:08.343Z,49.59
2023-03-31T09:42:37.834Z,48.85
2023-03-31T09:45:07.372Z,49.53
2023-03-31T09:47:57.975Z,48.08
2023-03-31T09:50:28.129Z,48.95
2023-03-31T09:53:01.264Z,49.82
2023-03-31T09:55:46.409Z,49.27
2023-03-31T09:58:17.408Z,49.21
2023-03-31T10:01:15.754Z,50.38
2023-03-31T10:03:54.360Z,49.90
2023-03-31T10:06:25.623Z,50.48
2023-03-31T10:09:00.311Z,50.62
2023-03-31T10:11:27.642Z,49.92
2023-03-31T10:14:03.959Z,49.49
2023-03-31T10:16:51.663Z,48.77
2023-03-31T10:19:27.856Z,47.48
2023-03-31T10:22:06.936Z,46.76
2023-03-31T10:24:41.505Z,47.02
2023-03-31T10:27:30.671Z,44.98
2023-03-31T10:30:01.646Z,44.34
2023-03-31T10:32:32.120Z,43.67
2023-03-31T10:35:06.562Z,44.00
2023-03-31T10:37:37.461Z,43.56
2023-03-31T10:40:24.425Z,42.14
2023-03-31T10:43:25.593Z,42.88
2023-03-31T10:45:57.253Z,40.92
2023-03-31T10:48:32.652Z,40.36
2023-03-31T10:51:02.422Z,38.42
2023-03-31T10:53:30.684Z,38.82
2023-03-31T10:56:05.530Z,39.02
2023-03-31T10:59:04.530Z,38.59
2023-03-31T11:01:48.319Z,38.41
2023-03-31T11:04:22.377Z,38.85
2023-03-31T11:06:58.192Z,39.86
2023-03-31T11:09:36.014Z,40.68
2023-03-31T11:12:34.060Z,40.51
2023-03-31T11:15:27.584Z,41.07
2023-03-31T11:18:16.422Z,41.45
2023-03-31T11:21:08.986Z,40.80
2023-03-31T11:23:44.924Z,42.47
2023-03-31T11:26:23.116Z,41.88
2023-03-31T11:29:26.572Z,43.17
2023-03-31T11:32:21.132Z,43.26
2023-03-31T11:35:16.815Z,43.71
2023-03-31T11:38:02.098Z,43.79
2023-03-31T11:41:15.781Z,43.98
2023-03-31T11:44:03.531Z,44.67
2023-03-31T11:46:55.548Z,44.43
2023-03-31T11:49:31.417Z,45.20
2023-03-31T11:52:33.566Z,45.69
2023-03-31T11:55:16.338Z,45.28
2023-03-31T11:57:47.264Z,44.09
2023-03-31T12:00:23.824Z,44.74
2023-03-31T12:03:39.569Z,44.76
2023-03-31T12:06:17.813Z,45.63
2023-03-31T12:08:51.740Z,45.93
2023-03-31T12:11:47.645Z,45.70
2023-03-31T12:14:31.559Z,45.91
2023-03-31T12:17:11.931Z,46.76
2023-03-31T12:19:52.057Z,46.00
2023-03-31T12:22:19.847Z,46.01
2023-03-31T12:24:47.980Z,46.02
2023-03-31T12:27:26.299Z,46.69
2023-03-31T12:30:11.365Z,46.36
2023-03-31T12:32:48.213Z,46.87
2023-03-31T12:35:19.206Z,47.41
2023-03-31T12:38:23.673Z,48.92
2023-03-31T12:41:17.245Z,49.57
2023-03-31T12:43:58.073Z,51.27
2023-03-31T12:46:54.096Z,52.71
2023-03-31T12:49:37.499Z,53.33
2023-03-31T12:52:11.113Z,52.73
2023-03-31T12:54:41.616Z,54.23
2023-03-31T12:57:10.664Z,57.94
2023-03-31T12:59:46.711Z,61.06
2023-03-31T13:02:18.064Z,62.51
2023-03-31T13:04:46.621Z,64.21
2023-03-31T13:07:27.308Z,66.75
2023-03-31T13:10:22.097Z,69.69
2023-03-31T13:13:02.514Z,74.91
2023-03-31T13:15:31.372Z,77.11
2023-03-31T13:18:07.601Z,80.11
2023-03-31T13:20:43.289Z,82.72
2023-03-31T13:23:23.413Z,83.43
2023-03-31T13:25:59.450Z,87.65
2023-03-31T13:28:29.051Z,88.74
2023-03-31T13:31:03.371Z,88.70
2023-03-31T13:34:03.840Z,90.18
2023-03-31T13:36:35.208Z,91.06
2023-03-31T13:39:34.343Z,91.57
2023-03-31T13:42:23.795Z,94.53
2023-03-31T13:45:25.325Z,95.95
2023-03-31T13:48:11.698Z,96.46
2023-03-31T13:51:17.351Z,96.88
2023-03-31T13:54:03.563Z,95.89
2023-03-31T13:56:55.263Z,95.40
2023-03-31T13:59:56.545Z,94.91
2023-03-31T14:02:31.443Z,96.88
2023-03-31T14:05:19.937Z,98.38
2023-03-31T14:07:55.470Z,97.90
2023-03-31T14:10:44.925Z,99.28
2023-03-31T14:13:19.973Z,100.00
2023-03-31T14:15:59.703Z,99.76
2023-03-31T14:18:31.690Z,99.24
2023-03-31T14:21:36.262Z,100.00
2023-03-31T14:24:37.622Z,100.00
2023-03-31T14:27:05.155Z,100.00
2023-03-31T14:29:48.053Z,100.00
2023-03-31T14:32:39.019Z,100.00
2023-03-31T14:35:14.888Z,100.00
2023-03-31T14:37:45.326Z,100.00
2023-03-31T14:40:18.460Z,100.00
2023-03-31T14:42:51.015Z,100.00
2023-03-31T14:45:26.583Z,100.00
2023-03-31T14:48:15.323Z,100.00
2023-03-31T14:50:45.473Z,100.00
2023-03-31T14:53:18.283Z,100.00
2023-03-31T14:55:58.587Z,100.00
2023-03-31T14:58:35.515Z,100.00
2023-03-31T15:01:07.365Z,100.00
2023-03-31T15:03:42.478Z,100.00
2023-03-31T15:06:12.140Z,100.00
2023-03-31T15:08:41.001Z,100.00
2023-03-31T15:11:19.170Z,100.00
2023-03-31T15:14:04.332Z,100.00
2023-03-31T15:16:45.602Z,100.00
2023-03-31T15:19:25.453Z,100.00
2023-03-31T15:22:07.495Z,100.00
2023-03-31T15:24:35.584Z,100.00
2023-03-31T15:27:20.592Z,100.00
2023-03-31T15:29:55.577Z,100.00
2023-03-31T15:32:30.122Z,100.00
2023-03-31T15:35:11.062Z,100.00
2023-03-31T15:37:48.109Z,100.00
2023-03-31T15:40:28.371Z,100.00
2023-03-31T15:43:06.984Z,100.00
2023-03-31T15:46:19.593Z,100.00
2023-03-31T15:48:56.989Z,100.00
2023-03-31T15:51:24.951Z,100.00
2023-03-31T15:53:54.824Z,100.00
2023-03-31T15:56:34.976Z,100.00
2023-03-31T15:59:05.215Z,100.00
2023-03-31T16:01:42.494Z,100.00
2023-03-31T16:04:16.218Z,100.00
2023-03-31T16:06:47.037Z,100.00
2023-03-31T16:09:29.418Z,100.00
2023-03-31T16:12:11.560Z,100.00
2023-03-31T16:14:48.822Z,100.00
2023-03-31T16:17:26.742Z,100.00
2023-03-31T16:20:08.524Z,100.00
2023-03-31T16:22:42.140Z,100.00
2023-03-31T16:25:13.002Z,100.00
2023-03-31T16:27:44.276Z,100.00
2023-03-31T16:30:16.635Z,100.00
2023-03-31T16:33:02.309Z,100.00
2023-03-31T16:35:53.224Z,100.00
2023-03-31T16:38:22.436Z,100.00
2023-03-31T16:40:53.566Z,100.00
2023-03-31T16:43:24.091Z,100.00
2023-03-31T16:45:52.545Z,100.00
2023-03-31T16:48:21.933Z,100.00
2023-03-31T16:50:51.959Z,100.00
2023-03-31T16:53:22.742Z,100.00
2023-03-31T16:55:50.429Z,100.00
2023-03-31T16:58:18.303Z,100.00
2023-03-31T17:00:46.458Z,100.00
2023-03-31T17:03:15.053Z,100.00
2023-03-31T17:05:48.256Z,100.00
2023-03-31T17:08:16.529Z,100.00
2023-03-31T17:10:52.780Z,100.00
2023-03-31T17:13:20.824Z,100.00
2023-03-31T17:15:49.613Z,100.00
2023-03-31T17:18:18.151Z,100.00
2023-03-31T17:20:45.904Z,100.00
2023-03-31T17:23:14.110Z,100.00
2023-03-31T17:25:48.189Z,100.00
2023-03-31T17:28:15.580Z,100.00
2023-03-31T17:30:44.650Z,100.00
2023-03-31T17:33:11.765Z,100.00
2023-03-31T17:35:38.934Z,100.00
2023-03-31T17:38:06.091Z,100.00
2023-03-31T17:40:34.772Z,100.00
2023-03-31T17:43:03.103Z,100.00
2023-03-31T17:45:31.220Z,100.00
2023-03-31T17:47:59.867Z,100.00
2023-03-31T17:50:27.488Z,100.00
2023-03-31T17:52:55.891Z,100.00
2023-03-31T17:55:23.793Z,100.00
2023-03-31T17:57:53.725Z,100.00
2023-03-31T18:00:21.226Z,100.00
2023-03-31T18:02:48.584Z,100.00
2023-03-31T18:05:18.178Z,100.00
2023-03-31T18:07:45.771Z,100.00
2023-03-31T18:10:13.252Z,100.00
2023-03-31T18:12:41.510Z,100.00
2023-03-31T18:15:10.596Z,100.00
2023-03-31T18:17:37.968Z,100.00
2023-03-31T18:20:05.872Z,100.00
2023-03-31T18:22:33.166Z,100.00
2023-03-31T18:25:00.707Z,100.00
2023-03-31T18:27:27.869Z,100.00
2023-03-31T18:29:55.774Z,100.00
2023-03-31T18:32:23.053Z,100.00
2023-03-31T18:34:50.200Z,100.00
2023-03-31T18:37:17.776Z,100.00
2023-03-31T18:39:45.183Z,100.00
2023-03-31T18:42:12.755Z,100.00
2023-03-31T18:44:40.002Z,100.00
2023-03-31T18:47:07.397Z,100.00
2023-03-31T18:49:34.962Z,100.00
2023-03-31T18:52:04.613Z,100.00
2023-03-31T18:54:32.438Z,100.00
2023-03-31T18:57:00.245Z,100.00
2023-03-31T18:59:27.666Z,100.00
2023-03-31T19:01:55.104Z,100.00
2023-03-31T19:04:22.177Z,100.00
2023-03-31T19:06:49.799Z,100.00
2023-03-31T19:09:17.667Z,100.00
2023-03-31T19:11:44.864Z,100.00
2023-03-31T19:14:12.581Z,100.00
2023-03-31T19:16:42.756Z,100.00
2023-03-31T19:19:12.980Z,100.00
2023-03-31T19:21:41.902Z,100.00
2023-03-31T19:24:09.734Z,100.00
2023-03-31T19:26:37.561Z,100.00
2023-03-31T19:29:05.539Z,100.00
2023-03-31T19:31:38.550Z,100.00
2023-03-31T19:34:08.125Z,100.00
2023-03-31T19:36:35.657Z,100.00
2023-03-31T19:39:04.063Z,100.00
2023-03-31T19:41:31.734Z,100.00
2023-03-31T19:43:59.217Z,100.00
2023-03-31T19:46:26.724Z,100.00
2023-03-31T19:48:54.109Z,100.00
2023-03-31T19:51:21.401Z,100.00
2023-03-31T19:53:48.746Z,100.00
2023-03-31T19:56:18.012Z,100.00
2023-03-31T19:58:45.908Z,100.00
2023-03-31T20:01:21.414Z,100.00
2023-03-31T20:03:53.203Z,100.00
2023-03-31T20:06:26.212Z,100.00
2023-03-31T20:08:58.872Z,100.00
2023-03-31T20:11:28.280Z,100.00
2023-03-31T20:13:56.329Z,100.00
2023-03-31T20:16:25.881Z,100.00
2023-03-31T20:18:58.872Z,100.00
2023-03-31T20:21:29.556Z,100.00
2023-03-31T20:23:57.491Z,100.00
2023-03-31T20:26:32.663Z,100.00
2023-03-31T20:29:04.590Z,100.00
2023-03-31T20:31:36.859Z,100.00
2023-03-31T20:34:07.033Z,100.00
2023-03-31T20:36:34.578Z,100.00
2023-03-31T20:39:04.412Z,100.00
2023-03-31T20:41:32.250Z,100.00
2023-03-31T20:44:00.162Z,100.00
2023-03-31T20:46:27.839Z,100.00
2023-03-31T20:48:57.678Z,100.00
2023-03-31T20:51:28.610Z,100.00
2023-03-31T20:53:57.708Z,100.00
2023-03-31T20:56:27.724Z,100.00
2023-03-31T20:58:57.890Z,100.00
2023-03-31T21:01:27.833Z,100.00
2023-03-31T21:03:55.227Z,100.00
2023-03-31T21:06:22.467Z,100.00
2023-03-31T21:08:54.091Z,100.00
2023-03-31T21:11:23.017Z,100.00
2023-03-31T21:13:51.147Z,100.00
2023-03-31T21:16:18.318Z,100.00
2023-03-31T21:18:45.723Z,100.00
2023-03-31T21:21:15.846Z,100.00
2023-03-31T21:23:43.130Z,100.00
2023-03-31T21:26:14.769Z,100.00
2023-03-31T21:28:42.019Z,100.00
2023-03-31T21:31:12.346Z,100.00
2023-03-31T21:33:41.933Z,100.00
2023-03-31T21:36:12.408Z,100.00
2023-03-31T21:38:40.920Z,100.00
2023-03-31T21:41:10.957Z,100.00
2023-03-31T21:43:38.662Z,100.00
2023-03-31T21:46:07.016Z,100.00
2023-03-31T21:48:35.814Z,100.00
2023-03-31T21:51:03.984Z,100.00
2023-03-31T21:53:31.670Z,100.00
2023-03-31T21:55:59.628Z,100.00
2023-03-31T21:58:29.209Z,100.00
2023-03-31T22:00:57.767Z,100.00
2023-03-31T22:03:29.320Z,100.00
2023-03-31T22:05:58.531Z,100.00
2023-03-31T22:08:27.440Z,100.00
2023-03-31T22:10:56.155Z,100.00
2023-03-31T22:13:25.260Z,100.00
2023-03-31T22:15:56.572Z,100.00
2023-03-31T22:18:23.777Z,100.00
2023-03-31T22:20:51.783Z,100.00
2023-03-31T22:23:21.043Z,100.00
2023-03-31T22:25:48.670Z,100.00
2023-03-31T22:28:17.261Z,100.00
2023-03-31T22:30:45.119Z,100.00
2023-03-31T22:33:12.888Z,100.00
2023-03-31T22:35:40.567Z,100.00
2023-03-31T22:38:08.746Z,100.00
2023-03-31T22:40:36.953Z,100.00
2023-03-31T22:43:05.081Z,100.00
2023-03-31T22:45:32.733Z,100.00
2023-03-31T22:48:00.052Z,100.00
2023-03-31T22:50:27.495Z,100.00
2023-03-31T22:52:54.966Z,100.00
2023-03-31T22:55:23.259Z,100.00
2023-03-31T22:57:51.047Z,100.00
2023-03-31T23:00:18.826Z,100.00
2023-03-31T23:02:46.485Z,100.00
2023-03-31T23:05:13.829Z,100.00
2023-03-31T23:07:41.925Z,100.00
2023-03-31T23:10:09.956Z,100.00
2023-03-31T23:12:37.497Z,100.00
2023-03-31T23:15:05.195Z,100.00
2023-03-31T23:17:33.178Z,100.00
2023-03-31T23:20:00.790Z,100.00
2023-03-31T23:22:28.147Z,100.00
2023-03-31T23:24:55.581Z,100.00
2023-03-31T23:27:23.630Z,100.00
2023-03-31T23:29:51.353Z,100.00
2023-03-31T23:32:18.554Z,100.00
2023-03-31T23:34:45.883Z,100.00
2023-03-31T23:37:14.423Z,100.00
2023-03-31T23:39:42.198Z,100.00
2023-03-31T23:42:10.852Z,100.00
2023-03-31T23:44:38.006Z,100.00
2023-03-31T23:47:06.445Z,100.00
2023-03-31T23:49:33.890Z,100.00
2023-03-31T23:52:01.494Z,100.00
2023-03-31T23:54:29.189Z,100.00
2023-03-31T23:56:56.682Z,100.00
2023-03-31T23:59:24.398Z,100.00
